sensor_id;sensor_type;location;lat;lon;timestamp;noise_LAeq;noise_LA_min;noise_LA_max;noise_LA01;noise_LA95
49568;Laerm;35474;51.032;6.998;2023-03-16T00:02:10;57.53;44.80;69.05;;
49568;Laerm;35474;51.032;6.998;2023-03-16T00:04:38;54.16;45.54;70.77;;
49568;Laerm;35474;51.032;6.998;2023-03-16T00:07:07;55.27;45.14;66.97;;
49568;Laerm;35474;51.032;6.998;2023-03-16T00:09:34;56.36;44.51;71.91;;
49568;Laerm;35474;51.032;6.998;2023-03-16T00:12:02;49.63;45.04;62.67;;
49568;Laerm;35474;51.032;6.998;2023-03-16T00:14:30;57.58;46.52;70.06;;
49568;Laerm;35474;51.032;6.998;2023-03-16T00:16:57;48.82;43.99;66.05;;
49568;Laerm;35474;51.032;6.998;2023-03-16T00:19:23;57.61;45.39;74.08;;
49568;Laerm;35474;51.032;6.998;2023-03-16T00:21:50;53.58;45.17;68.12;;
49568;Laerm;35474;51.032;6.998;2023-03-16T00:24:17;51.66;44.97;68.52;;
49568;Laerm;35474;51.032;6.998;2023-03-16T00:26:45;49.66;45.20;60.03;;
49568;Laerm;35474;51.032;6.998;2023-03-16T00:29:12;58.54;44.62;75.05;;
49568;Laerm;35474;51.032;6.998;2023-03-16T00:31:40;54.85;45.63;80.00;;
49568;Laerm;35474;51.032;6.998;2023-03-16T00:34:11;50.17;45.01;74.07;;
49568;Laerm;35474;51.032;6.998;2023-03-16T00:36:38;52.97;46.25;68.80;;
49568;Laerm;35474;51.032;6.998;2023-03-16T00:39:05;57.64;46.07;70.97;;
49568;Laerm;35474;51.032;6.998;2023-03-16T00:41:32;53.27;45.30;72.90;;
49568;Laerm;35474;51.032;6.998;2023-03-16T00:44:04;55.97;45.11;74.88;;
49568;Laerm;35474;51.032;6.998;2023-03-16T00:46:30;54.95;46.05;73.09;;
49568;Laerm;35474;51.032;6.998;2023-03-16T00:48:57;49.13;44.90;58.17;;
49568;Laerm;35474;51.032;6.998;2023-03-16T00:51:23;56.50;45.42;77.63;;
49568;Laerm;35474;51.032;6.998;2023-03-16T00:53:50;55.17;46.23;73.01;;
49568;Laerm;35474;51.032;6.998;2023-03-16T00:56:16;52.76;44.73;78.74;;
49568;Laerm;35474;51.032;6.998;2023-03-16T01:00:35;50.82;45.75;72.23;;
49568;Laerm;35474;51.032;6.998;2023-03-16T01:03:01;49.86;45.83;55.75;;
49568;Laerm;35474;51.032;6.998;2023-03-16T01:05:27;55.17;45.66;78.51;;
49568;Laerm;35474;51.032;6.998;2023-03-16T01:07:54;56.79;45.01;80.65;;
49568;Laerm;35474;51.032;6.998;2023-03-16T01:10:20;57.42;45.77;81.16;;
49568;Laerm;35474;51.032;6.998;2023-03-16T01:12:47;55.92;44.73;76.17;;
49568;Laerm;35474;51.032;6.998;2023-03-16T01:15:13;53.57;45.11;82.29;;
49568;Laerm;35474;51.032;6.998;2023-03-16T01:17:40;57.87;44.35;86.84;;
49568;Laerm;35474;51.032;6.998;2023-03-16T01:20:07;55.97;45.23;78.89;;
49568;Laerm;35474;51.032;6.998;2023-03-16T01:22:37;54.42;45.17;76.30;;
49568;Laerm;35474;51.032;6.998;2023-03-16T01:25:04;57.03;45.30;83.08;;
49568;Laerm;35474;51.032;6.998;2023-03-16T01:27:30;53.40;44.54;76.83;;
49568;Laerm;35474;51.032;6.998;2023-03-16T01:29:58;59.01;45.45;85.86;;
49568;Laerm;35474;51.032;6.998;2023-03-16T01:32:29;62.87;44.62;85.78;;
49568;Laerm;35474;51.032;6.998;2023-03-16T01:34:56;56.78;44.90;81.16;;
49568;Laerm;35474;51.032;6.998;2023-03-16T01:37:22;66.44;45.39;94.04;;
49568;Laerm;35474;51.032;6.998;2023-03-16T01:39:49;62.90;44.51;90.38;;
49568;Laerm;35474;51.032;6.998;2023-03-16T01:42:15;60.68;45.23;83.29;;
49568;Laerm;35474;51.032;6.998;2023-03-16T01:44:57;55.93;44.65;85.59;;
49568;Laerm;35474;51.032;6.998;2023-03-16T01:47:27;63.21;44.62;87.70;;
49568;Laerm;35474;51.032;6.998;2023-03-16T01:49:55;62.47;44.58;87.52;;
49568;Laerm;35474;51.032;6.998;2023-03-16T01:52:25;63.19;44.69;90.26;;
49568;Laerm;35474;51.032;6.998;2023-03-16T01:54:56;59.91;45.30;84.11;;
49568;Laerm;35474;51.032;6.998;2023-03-16T01:57:29;63.47;45.39;86.98;;
49568;Laerm;35474;51.032;6.998;2023-03-16T02:00:07;60.50;44.58;87.74;;
49568;Laerm;35474;51.032;6.998;2023-03-16T02:02:47;65.72;44.07;92.88;;
49568;Laerm;35474;51.032;6.998;2023-03-16T02:05:19;61.22;45.23;87.57;;
49568;Laerm;35474;51.032;6.998;2023-03-16T02:07:50;62.05;44.69;86.86;;
49568;Laerm;35474;51.032;6.998;2023-03-16T02:10:19;57.19;44.87;84.83;;
49568;Laerm;35474;51.032;6.998;2023-03-16T02:12:46;67.00;44.19;92.47;;
49568;Laerm;35474;51.032;6.998;2023-03-16T02:15:13;63.09;45.14;88.53;;
49568;Laerm;35474;51.032;6.998;2023-03-16T02:17:42;67.54;44.76;89.82;;
49568;Laerm;35474;51.032;6.998;2023-03-16T02:20:21;62.17;43.90;89.00;;
49568;Laerm;35474;51.032;6.998;2023-03-16T02:22:51;63.17;44.39;89.28;;
49568;Laerm;35474;51.032;6.998;2023-03-16T02:25:38;60.98;44.35;84.46;;
49568;Laerm;35474;51.032;6.998;2023-03-16T02:28:20;55.75;44.47;76.81;;
49568;Laerm;35474;51.032;6.998;2023-03-16T02:30:50;60.82;44.52;83.27;;
49568;Laerm;35474;51.032;6.998;2023-03-16T02:33:18;66.93;44.54;92.30;;
49568;Laerm;35474;51.032;6.998;2023-03-16T02:35:45;56.79;45.20;83.03;;
49568;Laerm;35474;51.032;6.998;2023-03-16T02:38:11;63.58;45.20;88.81;;
49568;Laerm;35474;51.032;6.998;2023-03-16T02:40:38;59.86;44.94;86.38;;
49568;Laerm;35474;51.032;6.998;2023-03-16T02:43:06;56.42;45.48;81.22;;
49568;Laerm;35474;51.032;6.998;2023-03-16T02:45:39;61.90;46.23;87.49;;
49568;Laerm;35474;51.032;6.998;2023-03-16T02:48:19;58.70;45.14;80.40;;
49568;Laerm;35474;51.032;6.998;2023-03-16T02:50:51;63.77;44.76;88.56;;
49568;Laerm;35474;51.032;6.998;2023-03-16T02:53:18;56.53;45.27;73.06;;
49568;Laerm;35474;51.032;6.998;2023-03-16T02:55:45;60.65;46.43;83.93;;
49568;Laerm;35474;51.032;6.998;2023-03-16T02:58:13;58.92;45.72;83.87;;
49568;Laerm;35474;51.032;6.998;2023-03-16T03:00:41;61.33;45.01;86.28;;
49568;Laerm;35474;51.032;6.998;2023-03-16T03:03:08;62.87;45.51;88.24;;
49568;Laerm;35474;51.032;6.998;2023-03-16T03:05:35;61.20;46.25;87.71;;
49568;Laerm;35474;51.032;6.998;2023-03-16T03:08:03;66.91;45.01;96.31;;
49568;Laerm;35474;51.032;6.998;2023-03-16T03:10:29;57.05;45.77;80.22;;
49568;Laerm;35474;51.032;6.998;2023-03-16T03:12:56;63.36;45.36;87.68;;
49568;Laerm;35474;51.032;6.998;2023-03-16T03:15:23;67.41;45.17;94.87;;
49568;Laerm;35474;51.032;6.998;2023-03-16T03:17:50;61.52;45.23;84.83;;
49568;Laerm;35474;51.032;6.998;2023-03-16T03:20:16;60.43;44.90;84.63;;
49568;Laerm;35474;51.032;6.998;2023-03-16T03:22:46;63.56;45.89;91.15;;
49568;Laerm;35474;51.032;6.998;2023-03-16T03:25:14;56.68;45.72;82.48;;
49568;Laerm;35474;51.032;6.998;2023-03-16T03:27:42;59.59;46.05;81.91;;
49568;Laerm;35474;51.032;6.998;2023-03-16T03:30:14;67.75;46.13;92.05;;
49568;Laerm;35474;51.032;6.998;2023-03-16T03:32:41;65.30;46.18;92.93;;
49568;Laerm;35474;51.032;6.998;2023-03-16T03:35:10;64.43;46.62;89.23;;
49568;Laerm;35474;51.032;6.998;2023-03-16T03:37:38;66.20;46.62;92.15;;
49568;Laerm;35474;51.032;6.998;2023-03-16T03:40:06;58.95;48.63;80.59;;
49568;Laerm;35474;51.032;6.998;2023-03-16T03:42:33;69.50;46.84;93.53;;
49568;Laerm;35474;51.032;6.998;2023-03-16T03:45:00;68.71;45.99;88.70;;
49568;Laerm;35474;51.032;6.998;2023-03-16T03:47:26;73.18;46.10;98.79;;
49568;Laerm;35474;51.032;6.998;2023-03-16T03:49:53;59.98;45.17;85.36;;
49568;Laerm;35474;51.032;6.998;2023-03-16T03:52:19;63.50;46.82;84.24;;
49568;Laerm;35474;51.032;6.998;2023-03-16T03:54:46;60.75;46.20;81.35;;
49568;Laerm;35474;51.032;6.998;2023-03-16T03:57:12;67.65;47.90;92.77;;
49568;Laerm;35474;51.032;6.998;2023-03-16T03:59:39;60.38;47.93;83.51;;
49568;Laerm;35474;51.032;6.998;2023-03-16T04:02:09;63.83;47.30;83.83;;
49568;Laerm;35474;51.032;6.998;2023-03-16T04:04:36;71.06;46.76;96.81;;
49568;Laerm;35474;51.032;6.998;2023-03-16T04:07:03;74.24;47.18;97.70;;
49568;Laerm;35474;51.032;6.998;2023-03-16T04:09:29;66.62;48.54;89.48;;
49568;Laerm;35474;51.032;6.998;2023-03-16T04:12:00;64.76;47.84;90.07;;
49568;Laerm;35474;51.032;6.998;2023-03-16T04:14:27;68.80;49.30;95.97;;
49568;Laerm;35474;51.032;6.998;2023-03-16T04:16:55;67.75;48.15;92.74;;
49568;Laerm;35474;51.032;6.998;2023-03-16T04:19:22;66.75;48.70;90.88;;
49568;Laerm;35474;51.032;6.998;2023-03-16T04:21:50;64.28;49.52;85.09;;
49568;Laerm;35474;51.032;6.998;2023-03-16T04:24:16;63.33;49.47;82.05;;
49568;Laerm;35474;51.032;6.998;2023-03-16T04:26:43;68.24;48.34;89.89;;
49568;Laerm;35474;51.032;6.998;2023-03-16T04:29:11;64.24;49.56;83.32;;
49568;Laerm;35474;51.032;6.998;2023-03-16T04:31:39;71.13;49.36;100.09;;
49568;Laerm;35474;51.032;6.998;2023-03-16T04:34:08;64.28;48.54;83.74;;
49568;Laerm;35474;51.032;6.998;2023-03-16T04:36:34;65.84;50.59;88.67;;
49568;Laerm;35474;51.032;6.998;2023-03-16T04:39:01;66.41;48.57;89.15;;
49568;Laerm;35474;51.032;6.998;2023-03-16T04:41:28;64.80;49.83;83.92;;
49568;Laerm;35474;51.032;6.998;2023-03-16T04:43:54;66.41;50.16;90.09;;
49568;Laerm;35474;51.032;6.998;2023-03-16T04:46:23;68.70;50.40;90.42;;
49568;Laerm;35474;51.032;6.998;2023-03-16T04:48:52;64.73;49.93;81.98;;
49568;Laerm;35474;51.032;6.998;2023-03-16T04:51:19;65.29;50.34;84.58;;
49568;Laerm;35474;51.032;6.998;2023-03-16T04:53:46;73.34;52.39;95.01;;
49568;Laerm;35474;51.032;6.998;2023-03-16T04:56:13;63.13;50.47;80.10;;
49568;Laerm;35474;51.032;6.998;2023-03-16T04:58:46;64.13;49.90;86.58;;
49568;Laerm;35474;51.032;6.998;2023-03-16T05:01:14;62.68;51.13;79.40;;
49568;Laerm;35474;51.032;6.998;2023-03-16T05:03:41;69.57;50.77;95.34;;
49568;Laerm;35474;51.032;6.998;2023-03-16T05:06:09;65.44;49.97;90.33;;
49568;Laerm;35474;51.032;6.998;2023-03-16T05:08:37;63.68;48.92;80.31;;
49568;Laerm;35474;51.032;6.998;2023-03-16T05:11:04;64.51;50.90;83.62;;
49568;Laerm;35474;51.032;6.998;2023-03-16T05:13:31;67.09;50.39;88.96;;
49568;Laerm;35474;51.032;6.998;2023-03-16T05:15:57;67.67;52.44;85.27;;
49568;Laerm;35474;51.032;6.998;2023-03-16T05:18:24;66.73;51.22;84.33;;
49568;Laerm;35474;51.032;6.998;2023-03-16T05:20:52;64.03;49.47;78.17;;
49568;Laerm;35474;51.032;6.998;2023-03-16T05:23:19;72.54;50.35;98.50;;
49568;Laerm;35474;51.032;6.998;2023-03-16T05:25:46;65.38;51.98;79.71;;
49568;Laerm;35474;51.032;6.998;2023-03-16T05:28:13;63.77;52.46;80.75;;
49568;Laerm;35474;51.032;6.998;2023-03-16T05:30:41;67.35;52.89;81.92;;
49568;Laerm;35474;51.032;6.998;2023-03-16T05:33:08;66.64;50.34;88.46;;
49568;Laerm;35474;51.032;6.998;2023-03-16T05:35:34;71.70;49.87;95.04;;
49568;Laerm;35474;51.032;6.998;2023-03-16T05:38:01;64.48;49.58;84.83;;
49568;Laerm;35474;51.032;6.998;2023-03-16T05:40:28;66.13;50.30;85.10;;
49568;Laerm;35474;51.032;6.998;2023-03-16T05:42:56;65.33;51.11;81.73;;
49568;Laerm;35474;51.032;6.998;2023-03-16T05:45:23;71.14;50.55;92.20;;
49568;Laerm;35474;51.032;6.998;2023-03-16T05:47:49;69.89;49.98;88.95;;
49568;Laerm;35474;51.032;6.998;2023-03-16T05:50:16;66.66;53.77;84.39;;
49568;Laerm;35474;51.032;6.998;2023-03-16T05:52:44;66.48;53.10;76.31;;
49568;Laerm;35474;51.032;6.998;2023-03-16T05:55:12;71.08;51.09;92.85;;
49568;Laerm;35474;51.032;6.998;2023-03-16T05:57:39;68.70;50.61;94.11;;
49568;Laerm;35474;51.032;6.998;2023-03-16T06:00:08;65.64;52.16;89.33;;
49568;Laerm;35474;51.032;6.998;2023-03-16T06:02:44;68.15;51.72;87.95;;
49568;Laerm;35474;51.032;6.998;2023-03-16T06:05:18;66.04;51.26;82.18;;
49568;Laerm;35474;51.032;6.998;2023-03-16T06:07:45;69.59;52.79;94.59;;
49568;Laerm;35474;51.032;6.998;2023-03-16T06:10:12;64.90;52.17;73.63;;
49568;Laerm;35474;51.032;6.998;2023-03-16T06:12:39;67.17;49.70;85.41;;
49568;Laerm;35474;51.032;6.998;2023-03-16T06:15:07;68.57;58.08;91.07;;
49568;Laerm;35474;51.032;6.998;2023-03-16T06:17:35;64.83;50.08;80.10;;
49568;Laerm;35474;51.032;6.998;2023-03-16T06:20:03;67.20;51.81;89.97;;
49568;Laerm;35474;51.032;6.998;2023-03-16T06:22:39;73.41;53.73;98.71;;
49568;Laerm;35474;51.032;6.998;2023-03-16T06:25:07;68.62;58.91;91.08;;
49568;Laerm;35474;51.032;6.998;2023-03-16T06:27:36;70.03;54.44;89.94;;
49568;Laerm;35474;51.032;6.998;2023-03-16T06:30:04;68.37;54.46;92.52;;
49568;Laerm;35474;51.032;6.998;2023-03-16T06:32:32;68.50;59.20;85.49;;
49568;Laerm;35474;51.032;6.998;2023-03-16T06:34:58;66.85;55.47;88.72;;
49568;Laerm;35474;51.032;6.998;2023-03-16T06:37:28;69.54;56.64;91.19;;
49568;Laerm;35474;51.032;6.998;2023-03-16T06:39:54;66.83;57.14;84.04;;
49568;Laerm;35474;51.032;6.998;2023-03-16T06:42:21;68.57;52.78;89.84;;
49568;Laerm;35474;51.032;6.998;2023-03-16T06:44:49;65.34;52.65;82.80;;
49568;Laerm;35474;51.032;6.998;2023-03-16T06:47:15;70.34;56.17;92.26;;
49568;Laerm;35474;51.032;6.998;2023-03-16T06:49:42;72.39;53.40;98.63;;
49568;Laerm;35474;51.032;6.998;2023-03-16T06:52:12;67.95;57.67;81.17;;
49568;Laerm;35474;51.032;6.998;2023-03-16T06:54:40;66.18;54.13;77.07;;
49568;Laerm;35474;51.032;6.998;2023-03-16T06:57:07;68.36;57.35;82.69;;
49568;Laerm;35474;51.032;6.998;2023-03-16T06:59:33;71.69;57.50;96.38;;
49568;Laerm;35474;51.032;6.998;2023-03-16T07:02:00;69.58;55.42;93.15;;
49568;Laerm;35474;51.032;6.998;2023-03-16T07:04:27;69.55;57.59;91.12;;
49568;Laerm;35474;51.032;6.998;2023-03-16T07:06:53;66.04;54.10;82.06;;
49568;Laerm;35474;51.032;6.998;2023-03-16T07:09:20;67.74;55.28;85.30;;
49568;Laerm;35474;51.032;6.998;2023-03-16T07:11:47;69.83;53.45;92.81;;
49568;Laerm;35474;51.032;6.998;2023-03-16T07:14:13;72.27;53.82;94.36;;
49568;Laerm;35474;51.032;6.998;2023-03-16T07:16:40;69.86;51.37;89.88;;
49568;Laerm;35474;51.032;6.998;2023-03-16T07:19:07;73.65;58.34;96.87;;
49568;Laerm;35474;51.032;6.998;2023-03-16T07:21:33;71.11;52.78;91.50;;
49568;Laerm;35474;51.032;6.998;2023-03-16T07:24:06;73.07;56.24;97.40;;
49568;Laerm;35474;51.032;6.998;2023-03-16T07:26:33;78.95;53.39;100.53;;
49568;Laerm;35474;51.032;6.998;2023-03-16T07:28:59;71.98;56.69;94.12;;
49568;Laerm;35474;51.032;6.998;2023-03-16T07:32:39;72.62;51.57;95.73;;
49568;Laerm;35474;51.032;6.998;2023-03-16T07:35:08;71.37;51.45;94.18;;
49568;Laerm;35474;51.032;6.998;2023-03-16T07:37:35;75.29;52.34;95.91;;
49568;Laerm;35474;51.032;6.998;2023-03-16T07:40:03;77.16;53.39;96.75;;
49568;Laerm;35474;51.032;6.998;2023-03-16T07:42:32;78.60;54.90;99.47;;
49568;Laerm;35474;51.032;6.998;2023-03-16T07:45:01;68.40;55.02;88.14;;
49568;Laerm;35474;51.032;6.998;2023-03-16T07:47:28;75.17;53.52;100.61;;
49568;Laerm;35474;51.032;6.998;2023-03-16T07:49:56;71.43;55.49;91.71;;
49568;Laerm;35474;51.032;6.998;2023-03-16T07:52:22;77.53;56.53;97.08;;
49568;Laerm;35474;51.032;6.998;2023-03-16T07:54:49;72.06;58.58;94.37;;
49568;Laerm;35474;51.032;6.998;2023-03-16T07:57:16;72.86;51.28;96.35;;
49568;Laerm;35474;51.032;6.998;2023-03-16T07:59:43;85.03;52.71;105.51;;
49568;Laerm;35474;51.032;6.998;2023-03-16T08:02:15;79.15;53.24;101.51;;
49568;Laerm;35474;51.032;6.998;2023-03-16T08:04:42;77.04;56.53;99.15;;
49568;Laerm;35474;51.032;6.998;2023-03-16T08:07:10;78.52;55.86;100.73;;
49568;Laerm;35474;51.032;6.998;2023-03-16T08:09:37;82.74;50.34;102.97;;
49568;Laerm;35474;51.032;6.998;2023-03-16T08:12:04;79.38;55.75;102.18;;
49568;Laerm;35474;51.032;6.998;2023-03-16T08:14:31;73.73;55.69;96.53;;
49568;Laerm;35474;51.032;6.998;2023-03-16T08:17:00;74.16;52.13;96.00;;
49568;Laerm;35474;51.032;6.998;2023-03-16T08:19:27;73.31;52.60;96.53;;
49568;Laerm;35474;51.032;6.998;2023-03-16T08:21:53;77.11;52.45;99.78;;
49568;Laerm;35474;51.032;6.998;2023-03-16T08:24:27;72.17;50.38;94.41;;
49568;Laerm;35474;51.032;6.998;2023-03-16T08:26:54;72.79;56.16;97.01;;
49568;Laerm;35474;51.032;6.998;2023-03-16T08:29:23;69.30;49.94;87.73;;
49568;Laerm;35474;51.032;6.998;2023-03-16T08:31:53;73.13;55.00;97.20;;
49568;Laerm;35474;51.032;6.998;2023-03-16T08:34:22;79.47;50.87;100.18;;
49568;Laerm;35474;51.032;6.998;2023-03-16T08:36:49;68.38;52.34;87.26;;
49568;Laerm;35474;51.032;6.998;2023-03-16T08:39:15;70.39;54.04;91.37;;
49568;Laerm;35474;51.032;6.998;2023-03-16T08:41:42;78.63;55.56;99.73;;
49568;Laerm;35474;51.032;6.998;2023-03-16T08:44:11;78.57;53.41;99.24;;
49568;Laerm;35474;51.032;6.998;2023-03-16T08:46:38;80.03;58.94;101.88;;
49568;Laerm;35474;51.032;6.998;2023-03-16T08:49:05;73.01;53.61;95.64;;
49568;Laerm;35474;51.032;6.998;2023-03-16T08:51:32;78.74;54.59;101.38;;
49568;Laerm;35474;51.032;6.998;2023-03-16T08:53:58;74.77;53.82;98.04;;
49568;Laerm;35474;51.032;6.998;2023-03-16T08:56:25;77.32;55.83;99.14;;
49568;Laerm;35474;51.032;6.998;2023-03-16T08:58:51;82.02;54.99;103.59;;
49568;Laerm;35474;51.032;6.998;2023-03-16T09:01:18;77.12;56.88;102.19;;
49568;Laerm;35474;51.032;6.998;2023-03-16T09:03:45;82.15;49.89;105.73;;
49568;Laerm;35474;51.032;6.998;2023-03-16T09:06:14;77.01;52.51;101.08;;
49568;Laerm;35474;51.032;6.998;2023-03-16T09:08:41;79.59;53.64;103.50;;
49568;Laerm;35474;51.032;6.998;2023-03-16T09:11:12;77.42;51.83;98.51;;
49568;Laerm;35474;51.032;6.998;2023-03-16T09:13:42;83.33;53.15;102.86;;
49568;Laerm;35474;51.032;6.998;2023-03-16T09:16:11;82.67;53.13;111.02;;
49568;Laerm;35474;51.032;6.998;2023-03-16T09:18:39;84.88;55.84;104.97;;
49568;Laerm;35474;51.032;6.998;2023-03-16T09:21:07;76.66;59.69;97.98;;
49568;Laerm;35474;51.032;6.998;2023-03-16T09:23:35;77.57;54.56;102.46;;
49568;Laerm;35474;51.032;6.998;2023-03-16T09:26:07;76.68;53.56;97.59;;
49568;Laerm;35474;51.032;6.998;2023-03-16T09:28:35;72.06;50.20;94.74;;
49568;Laerm;35474;51.032;6.998;2023-03-16T09:31:05;76.24;54.28;101.35;;
49568;Laerm;35474;51.032;6.998;2023-03-16T09:33:32;70.03;51.41;93.14;;
49568;Laerm;35474;51.032;6.998;2023-03-16T09:36:00;76.06;52.58;97.02;;
49568;Laerm;35474;51.032;6.998;2023-03-16T09:38:26;75.73;53.98;101.11;;
49568;Laerm;35474;51.032;6.998;2023-03-16T09:41:05;78.03;52.53;100.13;;
49568;Laerm;35474;51.032;6.998;2023-03-16T09:43:48;72.79;54.90;95.68;;
49568;Laerm;35474;51.032;6.998;2023-03-16T09:46:52;70.24;54.15;92.07;;
49568;Laerm;35474;51.032;6.998;2023-03-16T09:49:20;67.46;52.53;86.07;;
49568;Laerm;35474;51.032;6.998;2023-03-16T09:55:14;67.97;54.48;89.64;;
49568;Laerm;35474;51.032;6.998;2023-03-16T09:57:42;78.65;50.17;100.05;;
49568;Laerm;35474;51.032;6.998;2023-03-16T10:00:20;75.40;55.69;94.73;;
49568;Laerm;35474;51.032;6.998;2023-03-16T10:05:15;65.24;53.97;79.53;;
49568;Laerm;35474;51.032;6.998;2023-03-16T10:08:02;72.83;49.69;96.38;;
49568;Laerm;35474;51.032;6.998;2023-03-16T10:16:17;70.16;56.63;94.29;;
49568;Laerm;35474;51.032;6.998;2023-03-16T10:18:48;78.80;51.17;104.45;;
49568;Laerm;35474;51.032;6.998;2023-03-16T10:21:17;78.24;47.74;102.48;;
49568;Laerm;35474;51.032;6.998;2023-03-16T10:23:46;81.04;55.99;103.85;;
49568;Laerm;35474;51.032;6.998;2023-03-16T10:26:17;72.59;56.24;93.18;;
49568;Laerm;35474;51.032;6.998;2023-03-16T10:28:46;76.42;52.78;95.85;;
49568;Laerm;35474;51.032;6.998;2023-03-16T10:31:15;69.84;51.62;93.96;;
49568;Laerm;35474;51.032;6.998;2023-03-16T10:33:42;79.25;56.65;99.81;;
49568;Laerm;35474;51.032;6.998;2023-03-16T10:38:47;78.87;48.37;101.21;;
49568;Laerm;35474;51.032;6.998;2023-03-16T10:43:54;74.18;57.66;98.82;;
49568;Laerm;35474;51.032;6.998;2023-03-16T10:46:22;84.20;56.80;106.30;;
49568;Laerm;35474;51.032;6.998;2023-03-16T10:48:55;82.16;56.91;103.41;;
49568;Laerm;35474;51.032;6.998;2023-03-16T10:51:28;80.85;52.88;104.21;;
49568;Laerm;35474;51.032;6.998;2023-03-16T10:54:13;83.04;51.54;102.57;;
49568;Laerm;35474;51.032;6.998;2023-03-16T10:56:41;87.72;52.94;110.95;;
49568;Laerm;35474;51.032;6.998;2023-03-16T10:59:28;82.02;50.92;103.57;;
49568;Laerm;35474;51.032;6.998;2023-03-16T11:01:58;74.21;49.47;98.98;;
49568;Laerm;35474;51.032;6.998;2023-03-16T11:04:30;79.36;53.97;104.81;;
49568;Laerm;35474;51.032;6.998;2023-03-16T11:06:57;74.14;50.91;95.47;;
49568;Laerm;35474;51.032;6.998;2023-03-16T11:09:32;75.46;56.08;96.55;;
49568;Laerm;35474;51.032;6.998;2023-03-16T11:12:11;69.14;49.33;89.43;;
49568;Laerm;35474;51.032;6.998;2023-03-16T11:14:42;67.64;52.71;85.57;;
49568;Laerm;35474;51.032;6.998;2023-03-16T11:17:35;71.65;47.72;93.34;;
49568;Laerm;35474;51.032;6.998;2023-03-16T11:20:08;79.93;51.90;104.23;;
49568;Laerm;35474;51.032;6.998;2023-03-16T11:22:41;79.01;57.30;101.06;;
49568;Laerm;35474;51.032;6.998;2023-03-16T11:25:13;74.34;51.17;96.88;;
49568;Laerm;35474;51.032;6.998;2023-03-16T11:28:23;85.94;49.29;107.76;;
49568;Laerm;35474;51.032;6.998;2023-03-16T11:33:24;76.92;51.53;99.98;;
49568;Laerm;35474;51.032;6.998;2023-03-16T11:39:02;76.36;48.46;103.05;;
49568;Laerm;35474;51.032;6.998;2023-03-16T11:41:51;83.75;57.74;105.51;;
49568;Laerm;35474;51.032;6.998;2023-03-16T11:44:35;80.60;54.57;105.18;;
49568;Laerm;35474;51.032;6.998;2023-03-16T11:50:24;80.33;51.23;98.59;;
49568;Laerm;35474;51.032;6.998;2023-03-16T11:53:02;86.20;57.73;108.79;;
49568;Laerm;35474;51.032;6.998;2023-03-16T11:55:44;83.30;57.71;105.45;;
49568;Laerm;35474;51.032;6.998;2023-03-16T12:01:07;84.37;54.95;106.60;;
49568;Laerm;35474;51.032;6.998;2023-03-16T12:06:46;77.91;57.66;101.32;;
49568;Laerm;35474;51.032;6.998;2023-03-16T12:12:21;76.97;55.65;100.22;;
49568;Laerm;35474;51.032;6.998;2023-03-16T12:18:22;73.73;51.53;99.78;;
49568;Laerm;35474;51.032;6.998;2023-03-16T12:20:59;76.06;47.79;99.12;;
49568;Laerm;35474;51.032;6.998;2023-03-16T12:23:37;84.87;49.71;105.23;;
49568;Laerm;35474;51.032;6.998;2023-03-16T12:26:05;78.63;52.60;102.63;;
49568;Laerm;35474;51.032;6.998;2023-03-16T12:28:35;79.31;53.91;97.98;;
49568;Laerm;35474;51.032;6.998;2023-03-16T12:31:07;81.63;49.70;101.35;;
49568;Laerm;35474;51.032;6.998;2023-03-16T12:33:57;79.65;51.77;100.58;;
49568;Laerm;35474;51.032;6.998;2023-03-16T12:39:19;70.61;56.57;92.95;;
49568;Laerm;35474;51.032;6.998;2023-03-16T12:42:02;69.48;51.84;94.80;;
49568;Laerm;35474;51.032;6.998;2023-03-16T12:44:42;75.66;51.97;96.09;;
49568;Laerm;35474;51.032;6.998;2023-03-16T12:49:54;79.76;49.24;100.66;;
49568;Laerm;35474;51.032;6.998;2023-03-16T12:52:38;80.04;54.36;102.29;;
49568;Laerm;35474;51.032;6.998;2023-03-16T12:55:15;79.62;52.79;101.62;;
49568;Laerm;35474;51.032;6.998;2023-03-16T12:57:44;84.81;48.32;107.85;;
49568;Laerm;35474;51.032;6.998;2023-03-16T13:00:12;83.47;56.98;105.24;;
49568;Laerm;35474;51.032;6.998;2023-03-16T13:02:53;81.18;53.86;104.56;;
49568;Laerm;35474;51.032;6.998;2023-03-16T13:05:33;80.74;57.73;103.18;;
49568;Laerm;35474;51.032;6.998;2023-03-16T13:08:07;74.40;58.18;96.85;;
49568;Laerm;35474;51.032;6.998;2023-03-16T13:11:18;70.21;50.90;92.37;;
49568;Laerm;35474;51.032;6.998;2023-03-16T13:16:32;81.44;58.22;101.46;;
49568;Laerm;35474;51.032;6.998;2023-03-16T13:19:24;77.36;50.38;99.55;;
49568;Laerm;35474;51.032;6.998;2023-03-16T13:22:01;82.51;55.87;102.97;;
49568;Laerm;35474;51.032;6.998;2023-03-16T13:24:37;83.24;52.68;104.67;;
49568;Laerm;35474;51.032;6.998;2023-03-16T13:27:28;86.76;53.28;109.98;;
49568;Laerm;35474;51.032;6.998;2023-03-16T13:29:58;72.68;51.56;98.39;;
49568;Laerm;35474;51.032;6.998;2023-03-16T13:32:30;73.80;49.20;98.66;;
49568;Laerm;35474;51.032;6.998;2023-03-16T13:34:59;74.12;48.25;101.26;;
49568;Laerm;35474;51.032;6.998;2023-03-16T13:37:28;83.84;54.94;105.31;;
49568;Laerm;35474;51.032;6.998;2023-03-16T13:40:00;85.58;55.91;107.70;;
49568;Laerm;35474;51.032;6.998;2023-03-16T13:42:31;87.48;53.42;110.57;;
49568;Laerm;35474;51.032;6.998;2023-03-16T13:45:10;81.57;52.50;105.16;;
49568;Laerm;35474;51.032;6.998;2023-03-16T13:47:42;77.04;50.47;99.96;;
49568;Laerm;35474;51.032;6.998;2023-03-16T13:50:11;81.30;52.26;100.43;;
49568;Laerm;35474;51.032;6.998;2023-03-16T13:52:39;77.72;55.80;102.06;;
49568;Laerm;35474;51.032;6.998;2023-03-16T13:55:21;79.36;49.96;104.82;;
49568;Laerm;35474;51.032;6.998;2023-03-16T13:57:49;86.38;53.01;109.51;;
49568;Laerm;35474;51.032;6.998;2023-03-16T14:00:25;87.01;56.27;107.05;;
49568;Laerm;35474;51.032;6.998;2023-03-16T14:02:55;81.21;53.82;102.74;;
49568;Laerm;35474;51.032;6.998;2023-03-16T14:05:25;82.24;53.83;104.45;;
49568;Laerm;35474;51.032;6.998;2023-03-16T14:07:53;85.09;51.59;107.81;;
49568;Laerm;35474;51.032;6.998;2023-03-16T14:10:30;76.40;50.74;95.77;;
49568;Laerm;35474;51.032;6.998;2023-03-16T14:13:07;83.58;56.15;109.43;;
49568;Laerm;35474;51.032;6.998;2023-03-16T14:15:36;85.14;57.90;108.77;;
49568;Laerm;35474;51.032;6.998;2023-03-16T14:18:16;88.95;55.95;109.73;;
49568;Laerm;35474;51.032;6.998;2023-03-16T14:20:51;87.13;52.19;105.26;;
49568;Laerm;35474;51.032;6.998;2023-03-16T14:23:31;86.79;54.92;110.76;;
49568;Laerm;35474;51.032;6.998;2023-03-16T14:26:02;82.89;51.39;103.14;;
49568;Laerm;35474;51.032;6.998;2023-03-16T14:28:31;85.48;56.85;105.42;;
49568;Laerm;35474;51.032;6.998;2023-03-16T14:31:04;85.57;54.74;107.71;;
49568;Laerm;35474;51.032;6.998;2023-03-16T14:33:34;91.15;57.05;111.47;;
49568;Laerm;35474;51.032;6.998;2023-03-16T14:36:14;87.51;48.00;110.19;;
49568;Laerm;35474;51.032;6.998;2023-03-16T14:38:43;82.16;53.64;105.02;;
49568;Laerm;35474;51.032;6.998;2023-03-16T14:43:55;80.72;52.68;103.27;;
49568;Laerm;35474;51.032;6.998;2023-03-16T14:46:27;75.93;54.64;100.43;;
49568;Laerm;35474;51.032;6.998;2023-03-16T14:49:19;78.33;51.98;96.88;;
49568;Laerm;35474;51.032;6.998;2023-03-16T14:51:49;78.93;57.77;102.55;;